Time;durP1;ratioP1;P1;durP2;ratioP2;P2;SDS_P1;SDS_P2;PMS_P1;PMS_P2;Temp;Humidity;BMP_temperature;BMP_pressure;BME280_temperature;BME280_humidity;BME280_pressure;Samples;Min_cycle;Max_cycle;Signal;HPM_P1;HPM_P2
2022/05/14 00:00:21;;;;;;;;;;;;;;;;;;6242447;22;19921;-64
2022/05/14 00:02:46;;;;;;;;;;;;;;;;;;6232290;22;19984;-63
2022/05/14 00:05:14;;;;;;;;;;;;;;;;;;6205118;23;19996;-62
2022/05/14 00:07:42;;;;;;;;;;;;;;;;;;6130658;23;20356;-64
2022/05/14 00:10:10;;;;;;;;;;;;;;;;;;6207541;22;20101;-64
2022/05/14 00:15:22;;;;;;;;;;;;;;;;;;6233491;22;19912;-64
2022/05/14 00:17:51;;;;;;;;;;;;;;;;;;6137806;23;19916;-63
2022/05/14 00:20:19;;;;;;;;;;;;;;;;;;6230045;22;19921;-63
2022/05/14 00:22:47;;;;;;;;;;;;;;;;;;6137444;23;19916;-62
2022/05/14 00:25:15;;;;;;;;;;;;;;;;;;6138178;23;20490;-62
2022/05/14 00:27:42;;;;;;;;;;;;;;;;;;6240653;22;19912;-64
2022/05/14 00:30:07;;;;;;;;;;;;;;;;;;6232933;22;19915;-64
2022/05/14 00:32:33;;;;;;;;;;;;;;;;;;6233058;22;20354;-63
2022/05/14 00:34:58;;;;;;;;;;;;;;;;;;6129276;23;19909;-64
2022/05/14 00:37:23;;;;;;;;;;;;;;;;;;6127135;23;19916;-65
2022/05/14 00:39:48;;;;;;;;;;;;;;;;;;6129433;23;19917;-64
2022/05/14 00:42:16;;;;;;;;;;;;;;;;;;6239022;22;19912;-63
2022/05/14 00:44:44;;;;;;;;;;;;;;;;;;6129123;23;19909;-63
2022/05/14 00:47:09;;;;;;;;;;;;;;;;;;6130672;23;19919;-62
2022/05/14 00:49:35;;;;;;;;;;;;;;;;;;6242383;22;19940;-63
2022/05/14 00:52:00;;;;;;;;;;;;;;;;;;6207603;23;19916;-63
2022/05/14 00:54:28;;;;;;;;;;;;;;;;;;6231870;22;19913;-66
2022/05/14 00:56:56;;;;;;;;;;;;;;;;;;6232736;22;19979;-65
2022/05/14 00:59:21;;;;;;;;;;;;;;;;;;6241272;22;20355;-63
2022/05/14 01:01:48;;;;;;;;;;;;;;;;;;6141076;23;19916;-63
2022/05/14 01:04:14;;;;;;;;;;;;;;;;;;6128225;23;19913;-63
2022/05/14 01:06:39;;;;;;;;;;;;;;;;;;6230417;22;20145;-63
2022/05/14 01:09:07;;;;;;;;;;;;;;;;;;6138294;23;19912;-64
2022/05/14 01:11:32;;;;;;;;;;;;;;;;;;6231369;22;20691;-65
2022/05/14 01:14:00;;;;;;;;;;;;;;;;;;6231266;22;19912;-63
2022/05/14 01:16:28;;;;;;;;;;;;;;;;;;6206626;22;20352;-63
2022/05/14 01:18:53;;;;;;;;;;;;;;;;;;6205285;23;19924;-63
2022/05/14 01:21:18;;;;;;;;;;;;;;;;;;6127307;23;19919;-63
2022/05/14 01:26:28;;;;;;;;;;;;;;;;;;6129604;23;20555;-63
2022/05/14 01:28:55;;;;;;;;;;;;;;;;;;6226965;22;19919;-63
2022/05/14 01:31:21;;;;;;;;;;;;;;;;;;6125496;23;20567;-63
2022/05/14 01:33:51;;;;;;;;;;;;;;;;;;6207908;22;19936;-65
2022/05/14 01:36:16;;;;;;;;;;;;;;;;;;6128739;23;19926;-63
2022/05/14 01:38:44;;;;;;;;;;;;;;;;;;6137825;23;20267;-63
2022/05/14 01:41:13;;;;;;;;;;;;;;;;;;6138856;23;19912;-63
2022/05/14 01:43:39;;;;;;;;;;;;;;;;;;6231848;22;19917;-64
2022/05/14 01:46:07;;;;;;;;;;;;;;;;;;6229186;22;19908;-63
2022/05/14 01:48:32;;;;;;;;;;;;;;;;;;6228705;22;19991;-63
2022/05/14 01:51:00;;;;;;;;;;;;;;;;;;6230619;22;20067;-64
2022/05/14 01:53:25;;;;;;;;;;;;;;;;;;6128201;23;19934;-64
2022/05/14 01:55:55;;;;;;;;;;;;;;;;;;6239334;22;19916;-64
2022/05/14 01:58:36;;;;;;;;;;;;;;;;;;6205807;23;20251;-64
2022/05/14 02:01:01;;;;;;;;;;;;;;;;;;6204341;23;20033;-64
2022/05/14 02:03:29;;;;;;;;;;;;;;;;;;6205457;22;19932;-63
2022/05/14 02:05:54;;;;;;;;;;;;;;;;;;6126173;23;19982;-63
2022/05/14 02:08:22;;;;;;;;;;;;;;;;;;6241347;22;19991;-63
2022/05/14 02:10:50;;;;;;;;;;;;;;;;;;6216609;22;19916;-65
2022/05/14 02:13:16;;;;;;;;;;;;;;;;;;6139455;23;20386;-64
2022/05/14 02:15:41;;;;;;;;;;;;;;;;;;6232138;22;19991;-64
2022/05/14 02:18:07;;;;;;;;;;;;;;;;;;6230804;22;20016;-63
2022/05/14 02:20:32;;;;;;;;;;;;;;;;;;6228920;22;20758;-63
2022/05/14 02:23:00;;;;;;;;;;;;;;;;;;6129238;23;19919;-64
2022/05/14 02:25:25;;;;;;;;;;;;;;;;;;6230572;22;19920;-64
2022/05/14 02:27:53;;;;;;;;;;;;;;;;;;6138639;23;19936;-64
2022/05/14 02:30:20;;;;;;;;;;;;;;;;;;6127742;23;19944;-64
2022/05/14 02:32:48;;;;;;;;;;;;;;;;;;6240554;22;20324;-63
2022/05/14 02:35:16;;;;;;;;;;;;;;;;;;6206249;22;19917;-66
2022/05/14 02:37:41;;;;;;;;;;;;;;;;;;6231409;22;20804;-64
2022/05/14 02:40:06;;;;;;;;;;;;;;;;;;6231312;22;19920;-66
2022/05/14 02:42:36;;;;;;;;;;;;;;;;;;6137804;23;20245;-64
2022/05/14 02:45:04;;;;;;;;;;;;;;;;;;6239671;22;19913;-64
2022/05/14 02:47:34;;;;;;;;;;;;;;;;;;6236589;22;20317;-63
2022/05/14 02:49:59;;;;;;;;;;;;;;;;;;6230593;22;19917;-64
2022/05/14 02:52:27;;;;;;;;;;;;;;;;;;6126030;23;19912;-63
2022/05/14 02:54:54;;;;;;;;;;;;;;;;;;6239104;22;19940;-64
2022/05/14 02:57:19;;;;;;;;;;;;;;;;;;6128861;23;19983;-63
2022/05/14 02:59:49;;;;;;;;;;;;;;;;;;6138834;23;19920;-65
2022/05/14 03:02:15;;;;;;;;;;;;;;;;;;6126768;23;19995;-64
2022/05/14 03:04:40;;;;;;;;;;;;;;;;;;6229866;22;20384;-64
2022/05/14 03:07:06;;;;;;;;;;;;;;;;;;6138815;23;19917;-64
2022/05/14 03:09:34;;;;;;;;;;;;;;;;;;6205388;22;20631;-64
2022/05/14 03:12:00;;;;;;;;;;;;;;;;;;6129376;23;19924;-64
2022/05/14 03:14:28;;;;;;;;;;;;;;;;;;6232377;22;19908;-63
2022/05/14 03:16:59;;;;;;;;;;;;;;;;;;6231218;22;19912;-63
2022/05/14 03:19:24;;;;;;;;;;;;;;;;;;6128346;22;19923;-63
2022/05/14 03:21:54;;;;;;;;;;;;;;;;;;6127664;23;20323;-63
2022/05/14 03:24:19;;;;;;;;;;;;;;;;;;6233003;22;19913;-64
2022/05/14 03:26:45;;;;;;;;;;;;;;;;;;6128155;23;19959;-63
2022/05/14 03:29:11;;;;;;;;;;;;;;;;;;6128926;23;19982;-63
2022/05/14 03:31:40;;;;;;;;;;;;;;;;;;6202782;23;19971;-63
2022/05/14 03:34:05;;;;;;;;;;;;;;;;;;6139146;23;19908;-64
2022/05/14 03:36:33;;;;;;;;;;;;;;;;;;6231340;22;20374;-63
2022/05/14 03:38:58;;;;;;;;;;;;;;;;;;6205953;23;19916;-64
2022/05/14 03:41:24;;;;;;;;;;;;;;;;;;6235294;22;19939;-64
2022/05/14 03:43:49;;;;;;;;;;;;;;;;;;6130393;23;20794;-64
2022/05/14 03:46:17;;;;;;;;;;;;;;;;;;6207092;22;19916;-64
2022/05/14 03:48:42;;;;;;;;;;;;;;;;;;6241666;22;19982;-63
2022/05/14 03:51:10;;;;;;;;;;;;;;;;;;6129813;23;19920;-63
2022/05/14 03:53:35;;;;;;;;;;;;;;;;;;6138763;23;19917;-64
2022/05/14 03:56:00;;;;;;;;;;;;;;;;;;6125375;23;20263;-65
2022/05/14 03:58:26;;;;;;;;;;;;;;;;;;6138496;23;19989;-63
2022/05/14 04:00:51;;;;;;;;;;;;;;;;;;6231896;22;19916;-64
2022/05/14 04:03:16;;;;;;;;;;;;;;;;;;6231042;22;19924;-63
2022/05/14 04:05:41;;;;;;;;;;;;;;;;;;6127320;23;20382;-64
2022/05/14 04:08:07;;;;;;;;;;;;;;;;;;6129924;23;20364;-63
2022/05/14 04:10:32;;;;;;;;;;;;;;;;;;6241596;22;19920;-64
2022/05/14 04:13:03;;;;;;;;;;;;;;;;;;6231144;22;19921;-64
2022/05/14 04:15:28;;;;;;;;;;;;;;;;;;6229334;22;19932;-64
2022/05/14 04:17:56;;;;;;;;;;;;;;;;;;6231101;22;19912;-64
2022/05/14 04:20:21;;;;;;;;;;;;;;;;;;6225090;22;19930;-65
2022/05/14 04:22:46;;;;;;;;;;;;;;;;;;6253068;22;20670;-64
2022/05/14 04:25:14;;;;;;;;;;;;;;;;;;6263769;22;19919;-64
2022/05/14 04:27:44;;;;;;;;;;;;;;;;;;6253244;22;19925;-64
2022/05/14 04:30:12;;;;;;;;;;;;;;;;;;6252468;22;19912;-64
2022/05/14 04:32:42;;;;;;;;;;;;;;;;;;6263224;22;19923;-64
2022/05/14 04:35:10;;;;;;;;;;;;;;;;;;6260602;22;19915;-64
2022/05/14 04:37:36;;;;;;;;;;;;;;;;;;6255336;22;19918;-65
2022/05/14 04:40:01;;;;;;;;;;;;;;;;;;6227026;22;19922;-65
2022/05/14 04:42:31;;;;;;;;;;;;;;;;;;6251995;22;19908;-66
2022/05/14 04:44:59;;;;;;;;;;;;;;;;;;6252673;22;19942;-64
2022/05/14 04:47:25;;;;;;;;;;;;;;;;;;6253739;22;19961;-64
2022/05/14 04:49:52;;;;;;;;;;;;;;;;;;6252217;22;19962;-65
2022/05/14 04:52:18;;;;;;;;;;;;;;;;;;6253115;22;19918;-64
2022/05/14 04:54:43;;;;;;;;;;;;;;;;;;6252211;22;19911;-64
2022/05/14 04:57:11;;;;;;;;;;;;;;;;;;6226319;22;19919;-63
2022/05/14 04:59:41;;;;;;;;;;;;;;;;;;6267336;22;19947;-63
2022/05/14 05:04:50;;;;;;;;;;;;;;;;;;6257887;22;19972;-64
2022/05/14 05:07:16;;;;;;;;;;;;;;;;;;6255876;22;19919;-64
2022/05/14 05:09:45;;;;;;;;;;;;;;;;;;6268406;22;19942;-65
2022/05/14 05:12:11;;;;;;;;;;;;;;;;;;6258547;22;19911;-63
2022/05/14 05:14:37;;;;;;;;;;;;;;;;;;6256531;22;20580;-64
2022/05/14 05:17:02;;;;;;;;;;;;;;;;;;6254693;22;19942;-65
2022/05/14 05:19:28;;;;;;;;;;;;;;;;;;6231209;22;19936;-64
2022/05/14 05:21:53;;;;;;;;;;;;;;;;;;6229690;22;19975;-63
2022/05/14 05:24:23;;;;;;;;;;;;;;;;;;6262969;22;19919;-64
2022/05/14 05:26:48;;;;;;;;;;;;;;;;;;6254853;22;20688;-64
2022/05/14 05:29:15;;;;;;;;;;;;;;;;;;6264345;22;19938;-67
2022/05/14 05:31:43;;;;;;;;;;;;;;;;;;6264641;22;19915;-66
2022/05/14 05:34:11;;;;;;;;;;;;;;;;;;6264253;22;20287;-66
2022/05/14 05:36:36;;;;;;;;;;;;;;;;;;6237385;22;19921;-65
2022/05/14 05:39:02;;;;;;;;;;;;;;;;;;6254278;22;19916;-65
2022/05/14 05:41:29;;;;;;;;;;;;;;;;;;6261602;22;19915;-66
2022/05/14 05:43:57;;;;;;;;;;;;;;;;;;6265801;22;19911;-65
2022/05/14 05:46:27;;;;;;;;;;;;;;;;;;6256615;22;19911;-65
2022/05/14 05:48:53;;;;;;;;;;;;;;;;;;6257245;22;19953;-67
2022/05/14 05:51:18;;;;;;;;;;;;;;;;;;6255359;22;20018;-65
2022/05/14 05:59:11;;;;;;;;;;;;;;;;;;6256223;22;19919;-65
2022/05/14 06:01:40;;;;;;;;;;;;;;;;;;6265191;22;20626;-63
2022/05/14 06:04:07;;;;;;;;;;;;;;;;;;6227609;22;20573;-65
2022/05/14 06:06:33;;;;;;;;;;;;;;;;;;6254385;22;20029;-64
2022/05/14 06:08:58;;;;;;;;;;;;;;;;;;6255608;22;20086;-65
2022/05/14 06:11:25;;;;;;;;;;;;;;;;;;6252025;22;19911;-65
2022/05/14 06:13:50;;;;;;;;;;;;;;;;;;6251842;22;19964;-66
2022/05/14 06:16:16;;;;;;;;;;;;;;;;;;6257223;22;19937;-66
2022/05/14 06:18:44;;;;;;;;;;;;;;;;;;6229641;22;19998;-66
2022/05/14 06:21:12;;;;;;;;;;;;;;;;;;6227868;22;20529;-68
2022/05/14 06:23:38;;;;;;;;;;;;;;;;;;6250216;22;19914;-68
2022/05/14 06:26:03;;;;;;;;;;;;;;;;;;6260459;22;19915;-65
2022/05/14 06:28:31;;;;;;;;;;;;;;;;;;6254063;22;20551;-66
2022/05/14 06:30:56;;;;;;;;;;;;;;;;;;6251913;22;19911;-64
2022/05/14 06:33:21;;;;;;;;;;;;;;;;;;6257512;22;19911;-66
2022/05/14 06:35:49;;;;;;;;;;;;;;;;;;6263472;22;19911;-66
2022/05/14 06:38:16;;;;;;;;;;;;;;;;;;6262572;22;20016;-66
2022/05/14 06:40:46;;;;;;;;;;;;;;;;;;6262048;22;19923;-69
2022/05/14 06:43:14;;;;;;;;;;;;;;;;;;6249834;22;19938;-66
2022/05/14 06:45:39;;;;;;;;;;;;;;;;;;6252930;22;19950;-66
2022/05/14 06:48:07;;;;;;;;;;;;;;;;;;6252598;22;19942;-66
2022/05/14 06:50:33;;;;;;;;;;;;;;;;;;6253705;22;19990;-66
2022/05/14 06:52:58;;;;;;;;;;;;;;;;;;6254648;22;19911;-67
2022/05/14 06:55:24;;;;;;;;;;;;;;;;;;6253293;22;19912;-66
2022/05/14 06:57:52;;;;;;;;;;;;;;;;;;6253104;22;19922;-65
2022/05/14 07:00:19;;;;;;;;;;;;;;;;;;6252942;22;19916;-66
2022/05/14 07:02:47;;;;;;;;;;;;;;;;;;6266078;22;20010;-66
2022/05/14 07:08:02;;;;;;;;;;;;;;;;;;6253088;22;20839;-65
2022/05/14 07:10:27;;;;;;;;;;;;;;;;;;6250983;22;19949;-65
2022/05/14 07:12:57;;;;;;;;;;;;;;;;;;6260926;22;19916;-67
2022/05/14 07:15:23;;;;;;;;;;;;;;;;;;6261727;22;20334;-66
2022/05/14 07:17:48;;;;;;;;;;;;;;;;;;6251862;22;19919;-66
2022/05/14 07:20:15;;;;;;;;;;;;;;;;;;6180725;22;20496;-66
2022/05/14 07:22:44;;;;;;;;;;;;;;;;;;6129589;23;19919;-67
2022/05/14 07:25:10;;;;;;;;;;;;;;;;;;6229539;22;19919;-68
2022/05/14 07:27:35;;;;;;;;;;;;;;;;;;6132070;23;20029;-66
2022/05/14 07:30:01;;;;;;;;;;;;;;;;;;6233917;22;19993;-66
2022/05/14 07:32:29;;;;;;;;;;;;;;;;;;6233315;22;19920;-67
2022/05/14 07:34:55;;;;;;;;;;;;;;;;;;6132205;23;19974;-67
2022/05/14 07:37:23;;;;;;;;;;;;;;;;;;6131044;23;19917;-66
2022/05/14 07:39:51;;;;;;;;;;;;;;;;;;6233780;22;20372;-66
2022/05/14 07:42:16;;;;;;;;;;;;;;;;;;6232762;22;19913;-66
2022/05/14 07:44:42;;;;;;;;;;;;;;;;;;6233812;22;19920;-66
2022/05/14 07:47:07;;;;;;;;;;;;;;;;;;6131846;23;19917;-68
2022/05/14 07:49:32;;;;;;;;;;;;;;;;;;6232398;22;19921;-65
2022/05/14 07:51:58;;;;;;;;;;;;;;;;;;6244241;22;19912;-67
2022/05/14 07:54:23;;;;;;;;;;;;;;;;;;6234476;22;20015;-65
2022/05/14 07:56:49;;;;;;;;;;;;;;;;;;6234105;22;19992;-67
2022/05/14 07:59:15;;;;;;;;;;;;;;;;;;6131235;23;19913;-65
2022/05/14 08:01:42;;;;;;;;;;;;;;;;;;6141218;23;19912;-66
2022/05/14 08:04:10;;;;;;;;;;;;;;;;;;6210403;22;19912;-66
2022/05/14 08:06:35;;;;;;;;;;;;;;;;;;6140895;23;19923;-65
2022/05/14 08:09:00;;;;;;;;;;;;;;;;;;6209444;22;19951;-65
2022/05/14 08:11:26;;;;;;;;;;;;;;;;;;6235050;22;20224;-65
2022/05/14 08:13:54;;;;;;;;;;;;;;;;;;6243626;22;20001;-65
2022/05/14 08:16:19;;;;;;;;;;;;;;;;;;6133181;23;19959;-66
2022/05/14 08:18:47;;;;;;;;;;;;;;;;;;6233962;22;20469;-66
2022/05/14 08:26:41;;;;;;;;;;;;;;;;;;6233499;22;20460;-64
2022/05/14 08:29:06;;;;;;;;;;;;;;;;;;6132432;23;19923;-67
2022/05/14 08:31:34;;;;;;;;;;;;;;;;;;6234581;22;20376;-66
2022/05/14 08:34:00;;;;;;;;;;;;;;;;;;6234913;22;19912;-66
2022/05/14 08:36:28;;;;;;;;;;;;;;;;;;6208708;22;19909;-67
2022/05/14 08:38:54;;;;;;;;;;;;;;;;;;6132663;23;19912;-66
2022/05/14 08:41:21;;;;;;;;;;;;;;;;;;6243894;22;19920;-67
2022/05/14 08:43:51;;;;;;;;;;;;;;;;;;6142529;23;19912;-65
2022/05/14 08:46:17;;;;;;;;;;;;;;;;;;6133055;23;19957;-66
2022/05/14 08:48:44;;;;;;;;;;;;;;;;;;6142291;23;19912;-67
2022/05/14 08:51:13;;;;;;;;;;;;;;;;;;6233405;22;20002;-65
2022/05/14 08:53:38;;;;;;;;;;;;;;;;;;6235034;22;19934;-65
2022/05/14 08:56:04;;;;;;;;;;;;;;;;;;6234490;22;19988;-65
2022/05/14 08:58:29;;;;;;;;;;;;;;;;;;6209568;23;19999;-67
2022/05/14 09:00:54;;;;;;;;;;;;;;;;;;6210375;23;20632;-66
2022/05/14 09:03:20;;;;;;;;;;;;;;;;;;6233252;22;19951;-67
2022/05/14 09:05:46;;;;;;;;;;;;;;;;;;6234030;22;19912;-65
2022/05/14 09:08:11;;;;;;;;;;;;;;;;;;6233736;22;20415;-67
2022/05/14 09:10:37;;;;;;;;;;;;;;;;;;6132828;23;20539;-66
2022/05/14 09:13:02;;;;;;;;;;;;;;;;;;6234455;22;20661;-64
2022/05/14 09:15:30;;;;;;;;;;;;;;;;;;6242012;22;19932;-63
2022/05/14 09:17:58;;;;;;;;;;;;;;;;;;6141040;23;19988;-65
2022/05/14 09:20:23;;;;;;;;;;;;;;;;;;6233734;22;20783;-67
2022/05/14 09:22:48;;;;;;;;;;;;;;;;;;6235592;22;19939;-65
2022/05/14 09:25:17;;;;;;;;;;;;;;;;;;6133022;23;20326;-64
2022/05/14 09:27:42;;;;;;;;;;;;;;;;;;6142372;23;19917;-65
2022/05/14 09:30:08;;;;;;;;;;;;;;;;;;6132424;23;19916;-65
2022/05/14 09:32:33;;;;;;;;;;;;;;;;;;6141749;23;20363;-65
2022/05/14 09:34:59;;;;;;;;;;;;;;;;;;6234744;22;19908;-64
2022/05/14 09:37:29;;;;;;;;;;;;;;;;;;6208862;22;19917;-67
2022/05/14 09:39:54;;;;;;;;;;;;;;;;;;6235909;22;19928;-66
2022/05/14 09:42:20;;;;;;;;;;;;;;;;;;6132768;23;20009;-64
2022/05/14 09:44:45;;;;;;;;;;;;;;;;;;6235960;22;20542;-66
2022/05/14 09:47:10;;;;;;;;;;;;;;;;;;6246577;22;19958;-65
2022/05/14 09:49:40;;;;;;;;;;;;;;;;;;6233150;22;19993;-66
2022/05/14 09:52:05;;;;;;;;;;;;;;;;;;6235163;22;19936;-65
2022/05/14 09:54:30;;;;;;;;;;;;;;;;;;6209433;23;19944;-65
2022/05/14 09:56:58;;;;;;;;;;;;;;;;;;6141822;23;19985;-65
2022/05/14 09:59:24;;;;;;;;;;;;;;;;;;6235102;22;19989;-65
2022/05/14 10:01:51;;;;;;;;;;;;;;;;;;6133751;23;19940;-65
2022/05/14 10:04:18;;;;;;;;;;;;;;;;;;6244779;22;20503;-66
2022/05/14 10:06:43;;;;;;;;;;;;;;;;;;6210113;22;19912;-65
2022/05/14 10:09:08;;;;;;;;;;;;;;;;;;6142086;23;20459;-64
2022/05/14 10:11:34;;;;;;;;;;;;;;;;;;6132591;23;20689;-65
2022/05/14 10:14:00;;;;;;;;;;;;;;;;;;6134179;23;19917;-65
2022/05/14 10:16:28;;;;;;;;;;;;;;;;;;6210746;22;20461;-65
2022/05/14 10:18:53;;;;;;;;;;;;;;;;;;6235184;22;19920;-65
2022/05/14 10:21:18;;;;;;;;;;;;;;;;;;6235111;22;19958;-65
2022/05/14 10:26:46;;;;;;;;;;;;;;;;;;6235524;22;19921;-66
2022/05/14 10:29:11;;;;;;;;;;;;;;;;;;6209237;23;20324;-66
2022/05/14 10:31:36;;;;;;;;;;;;;;;;;;6209718;23;19970;-65
2022/05/14 10:34:02;;;;;;;;;;;;;;;;;;6131357;23;20364;-67
2022/05/14 10:36:30;;;;;;;;;;;;;;;;;;6208899;23;19912;-64
2022/05/14 10:38:56;;;;;;;;;;;;;;;;;;6131775;23;19938;-65
2022/05/14 10:41:21;;;;;;;;;;;;;;;;;;6235114;22;19917;-65
2022/05/14 10:43:48;;;;;;;;;;;;;;;;;;6235044;22;19916;-65
2022/05/14 10:46:13;;;;;;;;;;;;;;;;;;6209317;22;19944;-65
2022/05/14 10:48:38;;;;;;;;;;;;;;;;;;6233103;22;20707;-65
2022/05/14 10:51:08;;;;;;;;;;;;;;;;;;6141242;23;19932;-65
2022/05/14 10:53:33;;;;;;;;;;;;;;;;;;6131562;23;19982;-65
2022/05/14 10:55:59;;;;;;;;;;;;;;;;;;6141502;23;20374;-65
2022/05/14 10:58:36;;;;;;;;;;;;;;;;;;6141635;23;19924;-66
2022/05/14 11:01:04;;;;;;;;;;;;;;;;;;6208108;22;19917;-64
2022/05/14 11:03:31;;;;;;;;;;;;;;;;;;6142112;23;20514;-65
2022/05/14 11:05:58;;;;;;;;;;;;;;;;;;6208157;22;20516;-66
2022/05/14 11:08:26;;;;;;;;;;;;;;;;;;6132863;23;19948;-66
2022/05/14 11:10:51;;;;;;;;;;;;;;;;;;6141657;23;20333;-63
2022/05/14 11:13:17;;;;;;;;;;;;;;;;;;6209343;22;19921;-64
2022/05/14 11:15:42;;;;;;;;;;;;;;;;;;6234196;22;20725;-66
2022/05/14 11:18:07;;;;;;;;;;;;;;;;;;6244271;22;20379;-67
2022/05/14 11:20:35;;;;;;;;;;;;;;;;;;6241349;22;19924;-65
2022/05/14 11:23:03;;;;;;;;;;;;;;;;;;6141252;23;19916;-66
2022/05/14 11:25:30;;;;;;;;;;;;;;;;;;6233309;22;19921;-65
2022/05/14 11:27:56;;;;;;;;;;;;;;;;;;6237095;22;19913;-65
2022/05/14 11:30:21;;;;;;;;;;;;;;;;;;6244855;22;19991;-65
2022/05/14 11:32:47;;;;;;;;;;;;;;;;;;6143094;23;19913;-64
2022/05/14 11:35:15;;;;;;;;;;;;;;;;;;6234452;22;19913;-64
2022/05/14 11:37:44;;;;;;;;;;;;;;;;;;6211958;23;19991;-66
2022/05/14 11:40:12;;;;;;;;;;;;;;;;;;6143194;23;20019;-68
2022/05/14 11:42:40;;;;;;;;;;;;;;;;;;6143812;23;20000;-65
2022/05/14 11:45:05;;;;;;;;;;;;;;;;;;6237698;22;20015;-64
2022/05/14 11:47:31;;;;;;;;;;;;;;;;;;6236150;22;19921;-65
2022/05/14 11:49:58;;;;;;;;;;;;;;;;;;6237880;22;19916;-65
2022/05/14 11:52:24;;;;;;;;;;;;;;;;;;6244146;22;20601;-66
2022/05/14 11:54:52;;;;;;;;;;;;;;;;;;6144364;23;20591;-64
2022/05/14 11:57:17;;;;;;;;;;;;;;;;;;6133735;23;19943;-66
2022/05/14 11:59:43;;;;;;;;;;;;;;;;;;6210753;23;19920;-64
2022/05/14 12:02:11;;;;;;;;;;;;;;;;;;6143668;23;20043;-64
2022/05/14 12:04:37;;;;;;;;;;;;;;;;;;6139817;23;19913;-64
2022/05/14 12:07:02;;;;;;;;;;;;;;;;;;6209502;23;19909;-64
2022/05/14 12:09:30;;;;;;;;;;;;;;;;;;6235951;22;19917;-64
2022/05/14 12:11:56;;;;;;;;;;;;;;;;;;6235182;22;19923;-63
2022/05/14 12:14:23;;;;;;;;;;;;;;;;;;6142180;23;19920;-65
2022/05/14 12:16:49;;;;;;;;;;;;;;;;;;6235238;22;19974;-63
2022/05/14 12:19:14;;;;;;;;;;;;;;;;;;6234551;22;19925;-64
2022/05/14 12:21:43;;;;;;;;;;;;;;;;;;6142997;23;19912;-65
2022/05/14 12:24:11;;;;;;;;;;;;;;;;;;6142829;23;19965;-63
2022/05/14 12:26:37;;;;;;;;;;;;;;;;;;6142583;23;19991;-63
2022/05/14 12:29:03;;;;;;;;;;;;;;;;;;6235290;22;20359;-63
2022/05/14 12:34:12;;;;;;;;;;;;;;;;;;6133545;23;20385;-64
2022/05/14 12:36:39;;;;;;;;;;;;;;;;;;6208693;22;19974;-65
2022/05/14 12:39:04;;;;;;;;;;;;;;;;;;6236371;22;19981;-63
2022/05/14 12:41:32;;;;;;;;;;;;;;;;;;6210660;22;20327;-65
2022/05/14 12:43:58;;;;;;;;;;;;;;;;;;6246271;22;19973;-64
2022/05/14 12:46:26;;;;;;;;;;;;;;;;;;6244719;22;19974;-64
2022/05/14 12:48:54;;;;;;;;;;;;;;;;;;6142106;23;19951;-65
2022/05/14 12:51:20;;;;;;;;;;;;;;;;;;6210487;23;20670;-64
2022/05/14 12:53:45;;;;;;;;;;;;;;;;;;6132015;23;19920;-64
2022/05/14 12:56:11;;;;;;;;;;;;;;;;;;6133323;23;19924;-64
2022/05/14 12:58:38;;;;;;;;;;;;;;;;;;6235499;22;19913;-63
2022/05/14 13:01:04;;;;;;;;;;;;;;;;;;6142539;23;19916;-65
2022/05/14 13:03:30;;;;;;;;;;;;;;;;;;6209194;22;20378;-63
2022/05/14 13:06:01;;;;;;;;;;;;;;;;;;6235568;22;20514;-64
2022/05/14 13:08:29;;;;;;;;;;;;;;;;;;6235643;22;19912;-64
2022/05/14 13:10:54;;;;;;;;;;;;;;;;;;6236452;22;19923;-64
2022/05/14 13:13:22;;;;;;;;;;;;;;;;;;6143243;23;19913;-63
2022/05/14 13:15:53;;;;;;;;;;;;;;;;;;6236510;22;20075;-63
2022/05/14 13:18:21;;;;;;;;;;;;;;;;;;6245441;22;19917;-63
2022/05/14 13:20:56;;;;;;;;;;;;;;;;;;6142591;22;19936;-64
2022/05/14 13:23:21;;;;;;;;;;;;;;;;;;6210616;22;19912;-63
2022/05/14 13:25:49;;;;;;;;;;;;;;;;;;6243206;22;20312;-63
2022/05/14 13:28:14;;;;;;;;;;;;;;;;;;6143840;23;19913;-64
2022/05/14 13:30:41;;;;;;;;;;;;;;;;;;6210263;22;19917;-63
2022/05/14 13:33:07;;;;;;;;;;;;;;;;;;6244824;22;19919;-63
2022/05/14 13:38:19;;;;;;;;;;;;;;;;;;6236272;22;19987;-65
2022/05/14 13:40:47;;;;;;;;;;;;;;;;;;6142156;23;19995;-63
2022/05/14 13:43:14;;;;;;;;;;;;;;;;;;6211450;22;19924;-63
2022/05/14 13:45:40;;;;;;;;;;;;;;;;;;6208439;23;19916;-64
2022/05/14 13:48:08;;;;;;;;;;;;;;;;;;6236079;22;20010;-63
2022/05/14 13:50:34;;;;;;;;;;;;;;;;;;6209690;23;20718;-63
2022/05/14 13:52:59;;;;;;;;;;;;;;;;;;6235669;22;20371;-63
2022/05/14 13:55:26;;;;;;;;;;;;;;;;;;6132214;23;19917;-63
2022/05/14 13:57:54;;;;;;;;;;;;;;;;;;6209896;22;20584;-62
2022/05/14 14:00:20;;;;;;;;;;;;;;;;;;6142237;23;20248;-62
2022/05/14 14:02:45;;;;;;;;;;;;;;;;;;6142847;23;19958;-62
2022/05/14 14:05:10;;;;;;;;;;;;;;;;;;6243942;22;20790;-63
2022/05/14 14:07:39;;;;;;;;;;;;;;;;;;6133446;23;19970;-63
2022/05/14 14:10:04;;;;;;;;;;;;;;;;;;6234923;22;19955;-63
2022/05/14 14:12:32;;;;;;;;;;;;;;;;;;6233555;22;19941;-63
2022/05/14 14:14:58;;;;;;;;;;;;;;;;;;6142784;23;20058;-63
2022/05/14 14:17:24;;;;;;;;;;;;;;;;;;6234738;22;19909;-62
2022/05/14 14:19:49;;;;;;;;;;;;;;;;;;6142080;22;19921;-63
2022/05/14 14:22:15;;;;;;;;;;;;;;;;;;6234500;22;19931;-63
2022/05/14 14:24:45;;;;;;;;;;;;;;;;;;6142272;23;19913;-62
2022/05/14 14:27:13;;;;;;;;;;;;;;;;;;6234258;22;19920;-62
2022/05/14 14:29:41;;;;;;;;;;;;;;;;;;6142714;23;19931;-62
2022/05/14 14:32:06;;;;;;;;;;;;;;;;;;6131197;23;20006;-62
2022/05/14 14:34:34;;;;;;;;;;;;;;;;;;6142300;23;19996;-64
2022/05/14 14:36:59;;;;;;;;;;;;;;;;;;6233903;22;19917;-65
2022/05/14 14:39:27;;;;;;;;;;;;;;;;;;6132599;23;20478;-63
2022/05/14 14:41:55;;;;;;;;;;;;;;;;;;6142462;23;19913;-63
2022/05/14 14:44:23;;;;;;;;;;;;;;;;;;6132259;23;20660;-62
2022/05/14 14:46:50;;;;;;;;;;;;;;;;;;6209919;23;20003;-63
2022/05/14 14:49:16;;;;;;;;;;;;;;;;;;6142034;23;19917;-63
2022/05/14 14:51:41;;;;;;;;;;;;;;;;;;6235356;22;19913;-63
2022/05/14 14:54:10;;;;;;;;;;;;;;;;;;6235258;22;19916;-64
2022/05/14 14:56:35;;;;;;;;;;;;;;;;;;6235343;22;19923;-63
2022/05/14 14:59:03;;;;;;;;;;;;;;;;;;6133147;23;19917;-63
2022/05/14 15:01:32;;;;;;;;;;;;;;;;;;6233111;22;20679;-62
2022/05/14 15:04:01;;;;;;;;;;;;;;;;;;6144187;23;20380;-62
2022/05/14 15:06:27;;;;;;;;;;;;;;;;;;6143920;23;19912;-62
2022/05/14 15:08:52;;;;;;;;;;;;;;;;;;6247570;22;19912;-61
2022/05/14 15:11:18;;;;;;;;;;;;;;;;;;6247298;22;19913;-61
2022/05/14 15:13:44;;;;;;;;;;;;;;;;;;6210599;23;19912;-62
2022/05/14 15:16:10;;;;;;;;;;;;;;;;;;6145386;23;19917;-61
2022/05/14 15:18:36;;;;;;;;;;;;;;;;;;6142811;23;19913;-64
2022/05/14 15:21:01;;;;;;;;;;;;;;;;;;6257734;22;19923;-62
2022/05/14 15:23:30;;;;;;;;;;;;;;;;;;6259568;22;19911;-62
2022/05/14 15:25:57;;;;;;;;;;;;;;;;;;6257056;22;19915;-66
2022/05/14 15:28:22;;;;;;;;;;;;;;;;;;6269234;22;19938;-63
2022/05/14 15:30:47;;;;;;;;;;;;;;;;;;6269603;22;19943;-62
2022/05/14 15:33:15;;;;;;;;;;;;;;;;;;6266789;22;20624;-62
2022/05/14 15:35:42;;;;;;;;;;;;;;;;;;6268174;22;19911;-62
2022/05/14 15:38:11;;;;;;;;;;;;;;;;;;6267387;22;20380;-63
2022/05/14 15:40:37;;;;;;;;;;;;;;;;;;6258313;22;19918;-63
2022/05/14 15:43:04;;;;;;;;;;;;;;;;;;6269050;22;19911;-63
2022/05/14 15:45:32;;;;;;;;;;;;;;;;;;6256355;22;20002;-62
2022/05/14 15:47:58;;;;;;;;;;;;;;;;;;6257016;22;20867;-62
2022/05/14 15:50:25;;;;;;;;;;;;;;;;;;6264259;22;19915;-63
2022/05/14 15:52:50;;;;;;;;;;;;;;;;;;6267307;22;20293;-63
2022/05/14 15:55:18;;;;;;;;;;;;;;;;;;6255887;22;20353;-64
2022/05/14 15:57:43;;;;;;;;;;;;;;;;;;6253628;22;19915;-64
2022/05/14 16:00:09;;;;;;;;;;;;;;;;;;6267046;22;19920;-65
2022/05/14 16:02:38;;;;;;;;;;;;;;;;;;6264364;22;19911;-64
2022/05/14 16:05:03;;;;;;;;;;;;;;;;;;6265318;22;19911;-64
2022/05/14 16:07:34;;;;;;;;;;;;;;;;;;6251724;22;20450;-62
2022/05/14 16:18:17;;;;;;;;;;;;;;;;;;6257247;22;19923;-64
2022/05/14 16:20:42;;;;;;;;;;;;;;;;;;6228692;22;19923;-65
2022/05/14 16:23:10;;;;;;;;;;;;;;;;;;6231159;22;19986;-64
2022/05/14 16:25:37;;;;;;;;;;;;;;;;;;6254872;22;19915;-64
2022/05/14 16:28:03;;;;;;;;;;;;;;;;;;6264370;22;19926;-64
2022/05/14 16:30:28;;;;;;;;;;;;;;;;;;6253006;22;20408;-64
2022/05/14 16:32:53;;;;;;;;;;;;;;;;;;6227212;22;19911;-63
2022/05/14 16:35:22;;;;;;;;;;;;;;;;;;6251108;22;19947;-64
2022/05/14 16:37:50;;;;;;;;;;;;;;;;;;6263169;22;19914;-63
2022/05/14 16:40:15;;;;;;;;;;;;;;;;;;6261803;22;19998;-64
2022/05/14 16:42:41;;;;;;;;;;;;;;;;;;6265165;22;20157;-64
2022/05/14 16:45:08;;;;;;;;;;;;;;;;;;6265269;22;20584;-63
2022/05/14 16:47:33;;;;;;;;;;;;;;;;;;6228981;22;19942;-64
2022/05/14 16:50:01;;;;;;;;;;;;;;;;;;6265340;22;19919;-64
2022/05/14 16:52:26;;;;;;;;;;;;;;;;;;6250301;22;19918;-63
2022/05/14 16:54:51;;;;;;;;;;;;;;;;;;6265647;22;19922;-63
2022/05/14 16:57:24;;;;;;;;;;;;;;;;;;6256630;22;19911;-64
2022/05/14 16:59:52;;;;;;;;;;;;;;;;;;6266673;22;19918;-65
2022/05/14 17:02:21;;;;;;;;;;;;;;;;;;6252552;22;19974;-64
2022/05/14 17:04:48;;;;;;;;;;;;;;;;;;6260398;22;20410;-65
2022/05/14 17:07:13;;;;;;;;;;;;;;;;;;6264671;22;20026;-65
2022/05/14 17:09:39;;;;;;;;;;;;;;;;;;6264215;22;19923;-64
2022/05/14 17:12:04;;;;;;;;;;;;;;;;;;6263938;22;19915;-64
2022/05/14 17:14:32;;;;;;;;;;;;;;;;;;6264271;22;19915;-63
2022/05/14 17:16:59;;;;;;;;;;;;;;;;;;6262178;22;20728;-63
2022/05/14 17:19:25;;;;;;;;;;;;;;;;;;6231462;22;19958;-63